Time;durP1;ratioP1;P1;durP2;ratioP2;P2;SDS_P1;SDS_P2;PMS_P1;PMS_P2;Temp;Humidity;BMP_temperature;BMP_pressure;BME280_temperature;BME280_humidity;BME280_pressure;Samples;Min_cycle;Max_cycle;Signal;HPM_P1;HPM_P2
2022/11/28 00:00:13;;;;;;;9.40;7.30;;;;;;;;;;522213;28;1461;-60
2022/11/28 00:00:29;;;;;;;9.02;7.25;;;;;;;;;;521498;28;1439;-60
2022/11/28 00:00:45;;;;;;;9.73;7.15;;;;;;;;;;520488;28;1756;-60
2022/11/28 00:01:02;;;;;;;9.87;7.30;;;;;;;;;;521526;28;1157;-60
2022/11/28 00:01:24;;;;;;;9.98;7.47;;;;;;;;;;523852;28;1600;-60
2022/11/28 00:01:42;;;;;;;10.48;7.70;;;;;;;;;;522607;28;1657;-60
2022/11/28 00:01:58;;;;;;;9.43;7.20;;;;;;;;;;522659;28;1268;-60
2022/11/28 00:02:13;;;;;;;9.43;7.20;;;;;;;;;;522098;28;1292;-60
2022/11/28 00:02:28;;;;;;;9.83;7.37;;;;;;;;;;520674;28;1500;-60
2022/11/28 00:02:43;;;;;;;9.47;7.00;;;;;;;;;;519523;28;1295;-60
2022/11/28 00:02:59;;;;;;;10.00;7.28;;;;;;;;;;522839;28;1466;-60
2022/11/28 00:03:14;;;;;;;9.80;7.40;;;;;;;;;;522351;28;1368;-60
2022/11/28 00:03:30;;;;;;;8.48;7.10;;;;;;;;;;523230;28;1422;-60
2022/11/28 00:03:46;;;;;;;8.00;7.00;;;;;;;;;;522015;28;1193;-60
2022/11/28 00:04:02;;;;;;;8.27;6.90;;;;;;;;;;522777;28;1734;-60
2022/11/28 00:04:17;;;;;;;8.85;7.40;;;;;;;;;;524799;28;1247;-60
2022/11/28 00:04:32;;;;;;;8.90;7.30;;;;;;;;;;522712;28;1137;-60
2022/11/28 00:04:51;;;;;;;9.00;6.90;;;;;;;;;;522775;28;1169;-60
2022/11/28 00:05:09;;;;;;;8.82;7.13;;;;;;;;;;521491;28;1336;-61
2022/11/28 00:05:25;;;;;;;9.65;7.25;;;;;;;;;;521150;28;1111;-60
2022/11/28 00:05:40;;;;;;;9.63;7.20;;;;;;;;;;520696;28;1923;-60
2022/11/28 00:05:55;;;;;;;9.63;7.07;;;;;;;;;;522388;28;1681;-60
2022/11/28 00:06:10;;;;;;;9.35;7.07;;;;;;;;;;518780;28;1355;-60
2022/11/28 00:06:26;;;;;;;9.20;7.17;;;;;;;;;;520685;28;1353;-60
2022/11/28 00:06:47;;;;;;;10.02;7.18;;;;;;;;;;518960;28;1377;-60
2022/11/28 00:07:03;;;;;;;9.95;7.22;;;;;;;;;;521482;28;1061;-60
2022/11/28 00:07:18;;;;;;;9.73;7.30;;;;;;;;;;522366;28;1169;-60
2022/11/28 00:07:33;;;;;;;8.98;7.20;;;;;;;;;;517803;28;1307;-61
2022/11/28 00:07:49;;;;;;;11.60;7.50;;;;;;;;;;516860;28;1155;-60
2022/11/28 00:08:04;;;;;;;11.23;7.40;;;;;;;;;;518346;28;1212;-60
2022/11/28 00:08:19;;;;;;;8.73;6.90;;;;;;;;;;517599;28;1166;-60
2022/11/28 00:08:35;;;;;;;9.90;7.13;;;;;;;;;;521559;28;1077;-60
2022/11/28 00:08:50;;;;;;;9.47;7.23;;;;;;;;;;520062;28;1986;-60
2022/11/28 00:09:06;;;;;;;8.57;7.00;;;;;;;;;;520262;28;1413;-60
2022/11/28 00:09:22;;;;;;;9.20;7.07;;;;;;;;;;520515;28;1034;-60
2022/11/28 00:09:37;;;;;;;10.27;7.50;;;;;;;;;;519483;28;1308;-60
2022/11/28 00:09:52;;;;;;;10.40;7.53;;;;;;;;;;518480;28;1130;-60
2022/11/28 00:10:09;;;;;;;8.90;7.10;;;;;;;;;;519895;28;1365;-60
2022/11/28 00:10:25;;;;;;;9.25;7.10;;;;;;;;;;522391;28;1721;-60
2022/11/28 00:10:40;;;;;;;9.70;7.30;;;;;;;;;;520749;28;1448;-60
2022/11/28 00:10:55;;;;;;;10.00;6.80;;;;;;;;;;519336;28;1247;-60
2022/11/28 00:11:13;;;;;;;10.37;6.63;;;;;;;;;;524085;28;1398;-60
2022/11/28 00:11:28;;;;;;;10.30;7.00;;;;;;;;;;524720;28;1410;-61
2022/11/28 00:11:45;;;;;;;9.40;7.03;;;;;;;;;;522193;28;1426;-60
2022/11/28 00:12:00;;;;;;;8.90;6.82;;;;;;;;;;517683;28;2090;-60
2022/11/28 00:12:15;;;;;;;8.47;6.90;;;;;;;;;;519636;28;1497;-60
2022/11/28 00:12:31;;;;;;;8.63;7.07;;;;;;;;;;519122;28;1618;-60
2022/11/28 00:12:46;;;;;;;10.47;7.20;;;;;;;;;;518599;28;1361;-60
2022/11/28 00:13:01;;;;;;;10.68;7.28;;;;;;;;;;519386;28;1332;-60
2022/11/28 00:13:16;;;;;;;9.60;6.83;;;;;;;;;;518284;28;1146;-60
2022/11/28 00:13:32;;;;;;;9.33;6.50;;;;;;;;;;519804;28;1431;-60
2022/11/28 00:13:47;;;;;;;9.43;7.00;;;;;;;;;;521328;28;1228;-60
2022/11/28 00:14:03;;;;;;;9.67;7.20;;;;;;;;;;522321;28;1362;-60
2022/11/28 00:14:19;;;;;;;10.05;7.13;;;;;;;;;;521620;28;1285;-60
2022/11/28 00:14:34;;;;;;;10.13;7.03;;;;;;;;;;520602;28;1127;-60
2022/11/28 00:14:49;;;;;;;9.80;7.30;;;;;;;;;;520682;28;1977;-60
2022/11/28 00:15:05;;;;;;;9.93;7.40;;;;;;;;;;520023;28;1507;-61
2022/11/28 00:15:20;;;;;;;9.98;7.35;;;;;;;;;;521042;28;1778;-60
2022/11/28 00:15:36;;;;;;;9.57;7.33;;;;;;;;;;519748;28;1134;-60
2022/11/28 00:15:55;;;;;;;9.32;7.20;;;;;;;;;;519604;28;1196;-60
2022/11/28 00:16:16;;;;;;;9.45;7.15;;;;;;;;;;519555;28;2368;-60
2022/11/28 00:16:32;;;;;;;10.82;7.25;;;;;;;;;;521169;28;1442;-60
2022/11/28 00:16:47;;;;;;;9.25;7.00;;;;;;;;;;522024;28;1359;-60
2022/11/28 00:17:02;;;;;;;8.97;6.97;;;;;;;;;;522012;28;2120;-60
2022/11/28 00:17:18;;;;;;;9.27;7.20;;;;;;;;;;521257;28;1173;-60
2022/11/28 00:17:33;;;;;;;9.03;7.10;;;;;;;;;;522699;28;1513;-60
2022/11/28 00:17:48;;;;;;;8.97;7.07;;;;;;;;;;518863;28;1238;-60
2022/11/28 00:18:04;;;;;;;8.73;7.10;;;;;;;;;;523022;28;1336;-60
2022/11/28 00:18:19;;;;;;;8.98;7.07;;;;;;;;;;523461;28;1441;-60
2022/11/28 00:18:34;;;;;;;11.07;7.03;;;;;;;;;;523420;28;1697;-60
2022/11/28 00:18:51;;;;;;;11.10;7.10;;;;;;;;;;525936;27;1310;-60
2022/11/28 00:19:07;;;;;;;9.30;6.80;;;;;;;;;;528169;27;1307;-60
2022/11/28 00:19:23;;;;;;;8.70;6.72;;;;;;;;;;528922;27;1140;-60
2022/11/28 00:19:38;;;;;;;8.40;6.90;;;;;;;;;;527490;27;1130;-60
2022/11/28 00:19:53;;;;;;;8.60;6.87;;;;;;;;;;527225;27;2593;-60
2022/11/28 00:20:09;;;;;;;9.83;7.00;;;;;;;;;;528788;27;1426;-60
2022/11/28 00:20:24;;;;;;;10.20;7.20;;;;;;;;;;527273;27;1125;-60
2022/11/28 00:20:39;;;;;;;9.40;7.17;;;;;;;;;;528880;27;1092;-60
2022/11/28 00:21:06;;;;;;;9.23;6.93;;;;;;;;;;524808;28;1182;-61
2022/11/28 00:21:22;;;;;;;9.55;6.90;;;;;;;;;;526018;27;1484;-60
2022/11/28 00:21:38;;;;;;;8.77;7.00;;;;;;;;;;526593;28;1432;-60
2022/11/28 00:21:53;;;;;;;8.27;6.85;;;;;;;;;;525235;28;1328;-60
2022/11/28 00:22:08;;;;;;;8.93;6.60;;;;;;;;;;525755;28;1134;-60
2022/11/28 00:22:26;;;;;;;9.20;6.65;;;;;;;;;;524241;28;2226;-60
2022/11/28 00:22:41;;;;;;;9.75;6.95;;;;;;;;;;521743;28;2150;-60
2022/11/28 00:22:57;;;;;;;9.93;7.27;;;;;;;;;;522090;28;1438;-60
2022/11/28 00:23:12;;;;;;;9.87;7.50;;;;;;;;;;518359;28;1381;-60
2022/11/28 00:23:29;;;;;;;9.88;7.57;;;;;;;;;;518443;28;1838;-61
2022/11/28 00:23:46;;;;;;;9.48;7.38;;;;;;;;;;519205;28;1219;-60
2022/11/28 00:24:02;;;;;;;9.05;7.20;;;;;;;;;;519426;28;1109;-60
2022/11/28 00:24:17;;;;;;;9.27;7.40;;;;;;;;;;518733;28;1141;-60
2022/11/28 00:24:32;;;;;;;9.10;7.35;;;;;;;;;;520748;28;1198;-60
2022/11/28 00:24:48;;;;;;;9.87;7.40;;;;;;;;;;522740;28;1339;-60
2022/11/28 00:25:03;;;;;;;10.07;7.43;;;;;;;;;;523742;28;2091;-60
2022/11/28 00:25:18;;;;;;;9.18;7.30;;;;;;;;;;524978;28;1262;-60
2022/11/28 00:25:34;;;;;;;9.23;7.40;;;;;;;;;;524758;28;1311;-60
2022/11/28 00:26:00;;;;;;;10.37;7.37;;;;;;;;;;526089;28;1445;-60
2022/11/28 00:26:19;;;;;;;9.38;7.10;;;;;;;;;;526805;27;1168;-60
2022/11/28 00:26:38;;;;;;;8.52;6.82;;;;;;;;;;525894;28;1985;-60
2022/11/28 00:26:54;;;;;;;9.88;7.10;;;;;;;;;;527004;27;1401;-60
2022/11/28 00:27:09;;;;;;;9.47;6.97;;;;;;;;;;525593;28;1418;-60
2022/11/28 00:27:24;;;;;;;9.30;6.97;;;;;;;;;;526809;28;1286;-60
2022/11/28 00:27:39;;;;;;;9.80;7.33;;;;;;;;;;525422;28;1365;-60
2022/11/28 00:27:55;;;;;;;9.40;7.33;;;;;;;;;;522529;27;1213;-61
2022/11/28 00:28:10;;;;;;;9.77;7.23;;;;;;;;;;524096;28;1748;-60
2022/11/28 00:28:26;;;;;;;9.77;7.40;;;;;;;;;;524467;28;1390;-60
2022/11/28 00:28:41;;;;;;;10.50;7.57;;;;;;;;;;523671;28;1279;-60
2022/11/28 00:28:57;;;;;;;10.82;7.50;;;;;;;;;;523196;28;1577;-60
2022/11/28 00:29:12;;;;;;;10.05;7.20;;;;;;;;;;521657;28;1192;-61
2022/11/28 00:29:28;;;;;;;10.40;6.93;;;;;;;;;;522294;28;1427;-60
2022/11/28 00:29:43;;;;;;;9.67;6.67;;;;;;;;;;521578;28;2696;-60
2022/11/28 00:29:58;;;;;;;8.73;6.85;;;;;;;;;;523366;28;1152;-60
2022/11/28 00:30:14;;;;;;;9.27;7.13;;;;;;;;;;524382;28;1653;-60
2022/11/28 00:30:29;;;;;;;9.17;7.07;;;;;;;;;;525130;28;1036;-61
2022/11/28 00:30:44;;;;;;;8.75;6.82;;;;;;;;;;524055;28;1195;-61
2022/11/28 00:30:59;;;;;;;9.50;6.87;;;;;;;;;;524065;28;1160;-60
2022/11/28 00:31:21;;;;;;;9.60;7.10;;;;;;;;;;523537;27;1662;-60
2022/11/28 00:31:41;;;;;;;9.60;7.20;;;;;;;;;;524585;28;1315;-60
2022/11/28 00:31:56;;;;;;;9.55;7.13;;;;;;;;;;524291;28;1183;-60
2022/11/28 00:32:11;;;;;;;9.43;7.10;;;;;;;;;;524223;28;1291;-60
2022/11/28 00:32:26;;;;;;;8.70;6.70;;;;;;;;;;520739;28;1310;-60
2022/11/28 00:32:42;;;;;;;8.47;6.60;;;;;;;;;;521218;28;1576;-60
2022/11/28 00:32:57;;;;;;;8.73;6.60;;;;;;;;;;520722;28;1705;-60
2022/11/28 00:33:12;;;;;;;8.80;6.80;;;;;;;;;;519108;28;1112;-60
2022/11/28 00:33:28;;;;;;;9.23;7.28;;;;;;;;;;520478;28;1253;-60
2022/11/28 00:33:43;;;;;;;9.93;7.33;;;;;;;;;;518508;28;1145;-60
2022/11/28 00:34:00;;;;;;;9.77;7.07;;;;;;;;;;519988;28;1309;-60
2022/11/28 00:34:16;;;;;;;8.73;6.65;;;;;;;;;;522535;28;1353;-60
2022/11/28 00:34:31;;;;;;;8.80;6.60;;;;;;;;;;524236;28;1673;-60
2022/11/28 00:34:46;;;;;;;9.80;6.97;;;;;;;;;;524026;27;1066;-61
2022/11/28 00:35:02;;;;;;;10.77;7.15;;;;;;;;;;528389;27;1989;-61
2022/11/28 00:35:17;;;;;;;10.63;7.00;;;;;;;;;;528906;27;1085;-60
2022/11/28 00:35:32;;;;;;;9.33;6.90;;;;;;;;;;527968;27;1090;-60
2022/11/28 00:35:48;;;;;;;9.13;7.10;;;;;;;;;;525296;28;1304;-60
2022/11/28 00:36:04;;;;;;;9.87;7.13;;;;;;;;;;526704;28;1783;-60
2022/11/28 00:36:20;;;;;;;9.73;6.82;;;;;;;;;;523911;28;1340;-60
2022/11/28 00:36:35;;;;;;;9.65;6.60;;;;;;;;;;524189;28;1355;-60
2022/11/28 00:36:50;;;;;;;8.97;6.60;;;;;;;;;;522873;28;1309;-60
2022/11/28 00:37:05;;;;;;;8.52;6.80;;;;;;;;;;521886;28;1461;-60
2022/11/28 00:37:21;;;;;;;9.70;7.13;;;;;;;;;;522442;28;1391;-60
2022/11/28 00:37:36;;;;;;;9.83;7.03;;;;;;;;;;521229;28;1177;-61
2022/11/28 00:37:51;;;;;;;9.37;6.90;;;;;;;;;;520712;28;1525;-60
2022/11/28 00:38:06;;;;;;;10.00;7.30;;;;;;;;;;520800;28;1290;-60
2022/11/28 00:38:22;;;;;;;9.37;7.10;;;;;;;;;;520690;28;1375;-60
2022/11/28 00:38:37;;;;;;;8.57;6.77;;;;;;;;;;520263;28;1328;-60
2022/11/28 00:38:53;;;;;;;8.57;6.95;;;;;;;;;;519639;28;1419;-60
2022/11/28 00:39:08;;;;;;;9.30;7.20;;;;;;;;;;519906;28;1586;-60
2022/11/28 00:39:23;;;;;;;9.45;7.43;;;;;;;;;;520883;28;1954;-60
2022/11/28 00:39:39;;;;;;;9.10;7.30;;;;;;;;;;521970;28;1391;-60
2022/11/28 00:39:54;;;;;;;8.97;7.30;;;;;;;;;;522066;28;1117;-60
2022/11/28 00:40:09;;;;;;;9.80;7.30;;;;;;;;;;523480;28;1315;-60
2022/11/28 00:40:25;;;;;;;10.00;7.13;;;;;;;;;;525711;28;1216;-60
2022/11/28 00:40:40;;;;;;;8.50;6.80;;;;;;;;;;524036;28;1110;-61
2022/11/28 00:40:59;;;;;;;8.23;6.47;;;;;;;;;;526460;28;1648;-60
2022/11/28 00:41:18;;;;;;;9.05;6.70;;;;;;;;;;524478;28;1129;-60
2022/11/28 00:41:34;;;;;;;8.70;6.80;;;;;;;;;;524360;28;1473;-60
2022/11/28 00:41:49;;;;;;;8.50;6.90;;;;;;;;;;521977;28;1379;-60
2022/11/28 00:42:04;;;;;;;9.15;7.07;;;;;;;;;;519536;28;1502;-60
2022/11/28 00:42:21;;;;;;;9.30;7.13;;;;;;;;;;520334;28;1324;-60
2022/11/28 00:42:36;;;;;;;9.20;7.07;;;;;;;;;;519997;28;1430;-60
2022/11/28 00:42:51;;;;;;;8.83;6.97;;;;;;;;;;517222;28;1359;-60
2022/11/28 00:43:06;;;;;;;8.90;6.82;;;;;;;;;;517247;28;1353;-60
2022/11/28 00:43:22;;;;;;;9.53;7.03;;;;;;;;;;519098;28;1196;-60
2022/11/28 00:43:37;;;;;;;9.37;7.20;;;;;;;;;;518500;28;1237;-60
2022/11/28 00:43:53;;;;;;;8.77;7.15;;;;;;;;;;521580;28;1423;-60
2022/11/28 00:44:09;;;;;;;9.48;7.03;;;;;;;;;;523185;28;2001;-60
2022/11/28 00:44:24;;;;;;;8.85;6.75;;;;;;;;;;523714;28;2272;-60
2022/11/28 00:44:39;;;;;;;8.33;6.70;;;;;;;;;;521417;28;1237;-60
2022/11/28 00:44:55;;;;;;;9.33;7.30;;;;;;;;;;521889;28;1179;-60
2022/11/28 00:45:10;;;;;;;9.67;7.47;;;;;;;;;;524239;28;1251;-60
2022/11/28 00:45:25;;;;;;;10.38;7.32;;;;;;;;;;524291;28;1426;-60
2022/11/28 00:45:41;;;;;;;10.00;7.17;;;;;;;;;;523228;28;1401;-60
2022/11/28 00:45:56;;;;;;;8.67;7.03;;;;;;;;;;523759;28;1479;-60
2022/11/28 00:46:13;;;;;;;9.43;7.30;;;;;;;;;;521372;28;1226;-60
2022/11/28 00:46:28;;;;;;;10.63;7.32;;;;;;;;;;522176;28;1327;-60
2022/11/28 00:46:44;;;;;;;9.63;7.00;;;;;;;;;;525001;28;1389;-60
2022/11/28 00:46:59;;;;;;;9.60;6.85;;;;;;;;;;522454;28;1254;-60
2022/11/28 00:47:15;;;;;;;9.27;6.90;;;;;;;;;;518653;28;1213;-61
2022/11/28 00:47:30;;;;;;;8.25;6.90;;;;;;;;;;522443;28;2179;-60
2022/11/28 00:47:47;;;;;;;9.03;7.10;;;;;;;;;;522575;28;1358;-60
2022/11/28 00:48:02;;;;;;;9.05;7.15;;;;;;;;;;523774;28;1386;-60
2022/11/28 00:48:17;;;;;;;8.23;7.10;;;;;;;;;;520905;28;1206;-60
2022/11/28 00:48:33;;;;;;;8.13;6.73;;;;;;;;;;522175;28;1235;-60
2022/11/28 00:48:49;;;;;;;8.10;6.63;;;;;;;;;;523335;28;1472;-60
2022/11/28 00:49:05;;;;;;;8.48;7.00;;;;;;;;;;524296;28;1879;-60
2022/11/28 00:49:20;;;;;;;8.88;7.00;;;;;;;;;;526357;28;1143;-61
2022/11/28 00:49:35;;;;;;;9.67;7.10;;;;;;;;;;521969;28;1258;-60
2022/11/28 00:49:50;;;;;;;10.47;7.17;;;;;;;;;;521518;28;1537;-60
2022/11/28 00:50:06;;;;;;;10.43;6.90;;;;;;;;;;522259;28;1390;-60
2022/11/28 00:50:22;;;;;;;10.73;6.80;;;;;;;;;;524539;28;1386;-60
2022/11/28 00:50:37;;;;;;;9.90;6.85;;;;;;;;;;523980;28;1945;-60
2022/11/28 00:50:53;;;;;;;9.27;7.00;;;;;;;;;;523382;28;1100;-60
2022/11/28 00:51:14;;;;;;;9.18;6.97;;;;;;;;;;523417;28;1219;-60
2022/11/28 00:51:31;;;;;;;9.45;7.13;;;;;;;;;;523863;28;1385;-61
2022/11/28 00:51:47;;;;;;;9.38;7.13;;;;;;;;;;526311;27;1240;-61
2022/11/28 00:52:02;;;;;;;9.27;7.10;;;;;;;;;;528842;27;1366;-61
2022/11/28 00:52:17;;;;;;;9.50;7.10;;;;;;;;;;526527;28;1447;-60
2022/11/28 00:52:33;;;;;;;8.97;6.87;;;;;;;;;;524118;28;1497;-60
2022/11/28 00:52:48;;;;;;;8.73;6.83;;;;;;;;;;521687;28;1463;-60
2022/11/28 00:53:03;;;;;;;9.03;7.13;;;;;;;;;;521313;28;1376;-60
2022/11/28 00:53:18;;;;;;;8.83;7.10;;;;;;;;;;522127;28;1390;-60
2022/11/28 00:53:34;;;;;;;8.40;6.78;;;;;;;;;;522534;28;1351;-60
2022/11/28 00:53:52;;;;;;;8.33;6.60;;;;;;;;;;520981;28;1883;-60
2022/11/28 00:54:07;;;;;;;9.15;7.05;;;;;;;;;;519353;28;1739;-60
2022/11/28 00:54:22;;;;;;;9.20;7.17;;;;;;;;;;523187;28;1372;-60
2022/11/28 00:54:37;;;;;;;9.35;7.03;;;;;;;;;;522274;28;1317;-60
2022/11/28 00:54:53;;;;;;;9.33;6.90;;;;;;;;;;521152;28;1925;-60
2022/11/28 00:55:08;;;;;;;9.17;7.10;;;;;;;;;;522857;28;1233;-60
2022/11/28 00:55:24;;;;;;;9.20;7.22;;;;;;;;;;521721;28;1327;-60
2022/11/28 00:55:39;;;;;;;9.43;7.00;;;;;;;;;;519142;28;1341;-60
2022/11/28 00:55:55;;;;;;;9.93;7.20;;;;;;;;;;519104;28;1125;-60
2022/11/28 00:56:12;;;;;;;10.23;7.50;;;;;;;;;;519736;28;1130;-60
2022/11/28 00:56:32;;;;;;;9.85;7.50;;;;;;;;;;522415;28;1271;-60
2022/11/28 00:56:47;;;;;;;9.32;7.22;;;;;;;;;;523086;28;1200;-60
2022/11/28 00:57:02;;;;;;;9.10;7.18;;;;;;;;;;521313;28;1685;-60
2022/11/28 00:57:18;;;;;;;9.50;7.17;;;;;;;;;;522410;28;1358;-60
2022/11/28 00:57:33;;;;;;;9.03;7.07;;;;;;;;;;523788;28;1917;-60
2022/11/28 00:57:48;;;;;;;8.90;7.38;;;;;;;;;;521383;28;1356;-60
2022/11/28 00:58:04;;;;;;;9.03;7.40;;;;;;;;;;522064;28;1376;-60
2022/11/28 00:58:19;;;;;;;10.03;7.17;;;;;;;;;;518216;28;1157;-61
2022/11/28 00:58:35;;;;;;;9.55;6.93;;;;;;;;;;519389;28;1680;-60
2022/11/28 00:58:50;;;;;;;8.93;7.00;;;;;;;;;;519577;28;1758;-60
2022/11/28 00:59:06;;;;;;;9.20;6.93;;;;;;;;;;520571;28;1216;-60
2022/11/28 00:59:21;;;;;;;9.20;6.85;;;;;;;;;;517979;28;1719;-60
2022/11/28 00:59:36;;;;;;;9.13;6.90;;;;;;;;;;520857;28;1190;-60
2022/11/28 00:59:52;;;;;;;8.53;6.83;;;;;;;;;;521693;28;1229;-60
2022/11/28 01:00:08;;;;;;;8.77;7.00;;;;;;;;;;523304;28;1957;-60
2022/11/28 01:00:23;;;;;;;9.73;7.07;;;;;;;;;;525125;27;1215;-60
2022/11/28 01:00:38;;;;;;;9.27;6.90;;;;;;;;;;522858;28;1211;-60
2022/11/28 01:00:54;;;;;;;8.03;6.80;;;;;;;;;;523520;28;1428;-60
2022/11/28 01:01:15;;;;;;;8.60;6.80;;;;;;;;;;523704;28;1232;-60
2022/11/28 01:01:36;;;;;;;8.73;6.78;;;;;;;;;;524500;28;1088;-60
2022/11/28 01:01:51;;;;;;;8.93;6.93;;;;;;;;;;526316;28;1546;-60
2022/11/28 01:02:07;;;;;;;9.27;6.93;;;;;;;;;;523655;28;1285;-60
2022/11/28 01:02:22;;;;;;;8.70;6.87;;;;;;;;;;525168;28;1241;-60
2022/11/28 01:02:37;;;;;;;8.27;6.75;;;;;;;;;;526184;28;1457;-60
2022/11/28 01:02:52;;;;;;;9.73;7.17;;;;;;;;;;523859;28;1381;-60
2022/11/28 01:03:08;;;;;;;10.13;7.20;;;;;;;;;;522991;28;1405;-60
2022/11/28 01:03:23;;;;;;;9.52;7.10;;;;;;;;;;523285;28;1569;-60
2022/11/28 01:03:39;;;;;;;9.50;7.27;;;;;;;;;;520715;28;1449;-60
2022/11/28 01:03:56;;;;;;;9.52;7.20;;;;;;;;;;521112;28;1343;-60
2022/11/28 01:04:14;;;;;;;10.10;7.15;;;;;;;;;;521155;28;1641;-60
2022/11/28 01:04:29;;;;;;;9.65;7.22;;;;;;;;;;520360;28;1205;-60
2022/11/28 01:04:44;;;;;;;9.47;7.13;;;;;;;;;;522319;28;1336;-60
2022/11/28 01:05:00;;;;;;;10.83;7.03;;;;;;;;;;523808;28;1688;-60
2022/11/28 01:05:15;;;;;;;9.88;7.13;;;;;;;;;;525836;28;1228;-60
2022/11/28 01:05:30;;;;;;;8.47;7.10;;;;;;;;;;526509;27;1204;-60
2022/11/28 01:05:46;;;;;;;9.07;6.90;;;;;;;;;;523731;28;1335;-60
2022/11/28 01:06:01;;;;;;;9.30;6.40;;;;;;;;;;527610;28;1369;-60
2022/11/28 01:06:27;;;;;;;8.53;6.20;;;;;;;;;;524879;28;1354;-60
2022/11/28 01:06:47;;;;;;;9.82;7.15;;;;;;;;;;524843;28;2000;-60
2022/11/28 01:07:03;;;;;;;10.15;7.25;;;;;;;;;;519512;28;1162;-61
2022/11/28 01:07:18;;;;;;;9.60;7.33;;;;;;;;;;520825;28;1372;-60
2022/11/28 01:07:33;;;;;;;9.30;7.17;;;;;;;;;;520904;28;1368;-60
2022/11/28 01:07:49;;;;;;;8.53;6.93;;;;;;;;;;521751;28;1241;-60
2022/11/28 01:08:04;;;;;;;8.90;6.78;;;;;;;;;;522862;28;1166;-60
2022/11/28 01:08:19;;;;;;;9.10;6.70;;;;;;;;;;522367;28;2684;-61
2022/11/28 01:08:35;;;;;;;9.10;6.60;;;;;;;;;;523626;28;1263;-60
2022/11/28 01:08:52;;;;;;;9.75;7.00;;;;;;;;;;522563;28;1590;-60
2022/11/28 01:09:10;;;;;;;9.25;7.25;;;;;;;;;;523898;28;1409;-60
2022/11/28 01:09:26;;;;;;;9.57;7.40;;;;;;;;;;523589;28;1241;-60
2022/11/28 01:09:41;;;;;;;9.83;7.23;;;;;;;;;;526357;28;1636;-60
2022/11/28 01:09:56;;;;;;;9.93;7.10;;;;;;;;;;526219;27;2007;-60
2022/11/28 01:10:11;;;;;;;10.07;6.80;;;;;;;;;;525933;28;1299;-60
2022/11/28 01:10:27;;;;;;;10.20;6.95;;;;;;;;;;520823;28;1243;-60
2022/11/28 01:10:44;;;;;;;9.57;7.20;;;;;;;;;;519053;28;1326;-60
2022/11/28 01:10:59;;;;;;;8.88;7.00;;;;;;;;;;520264;28;1477;-60
2022/11/28 01:11:14;;;;;;;9.63;6.90;;;;;;;;;;520125;28;1478;-60
2022/11/28 01:11:30;;;;;;;9.93;7.03;;;;;;;;;;517278;28;1811;-60
2022/11/28 01:11:50;;;;;;;10.23;7.27;;;;;;;;;;518198;28;1594;-60
2022/11/28 01:12:05;;;;;;;9.55;7.03;;;;;;;;;;520626;28;1515;-60
2022/11/28 01:12:21;;;;;;;9.52;7.15;;;;;;;;;;520745;28;1190;-61
2022/11/28 01:12:36;;;;;;;10.00;7.20;;;;;;;;;;520696;28;1317;-60
2022/11/28 01:12:51;;;;;;;10.37;7.37;;;;;;;;;;519198;28;1120;-61
2022/11/28 01:13:08;;;;;;;10.48;7.47;;;;;;;;;;520282;28;2106;-60
2022/11/28 01:13:23;;;;;;;9.35;7.15;;;;;;;;;;520301;28;1213;-60
2022/11/28 01:13:39;;;;;;;8.85;7.00;;;;;;;;;;522573;28;1125;-60
2022/11/28 01:13:56;;;;;;;8.65;7.20;;;;;;;;;;521829;28;2915;-60
2022/11/28 01:14:12;;;;;;;8.38;6.97;;;;;;;;;;521971;28;1622;-60
2022/11/28 01:14:29;;;;;;;8.10;6.80;;;;;;;;;;520834;28;1184;-61
2022/11/28 01:14:44;;;;;;;8.00;6.82;;;;;;;;;;522740;28;1789;-60
2022/11/28 01:14:59;;;;;;;8.77;6.90;;;;;;;;;;521782;28;1973;-60
2022/11/28 01:15:14;;;;;;;9.13;7.00;;;;;;;;;;522952;28;1275;-60
2022/11/28 01:15:30;;;;;;;8.53;7.13;;;;;;;;;;524580;28;1383;-60
2022/11/28 01:15:45;;;;;;;8.73;7.03;;;;;;;;;;522512;28;1152;-60
2022/11/28 01:16:00;;;;;;;8.63;6.72;;;;;;;;;;524315;28;1109;-60
2022/11/28 01:16:16;;;;;;;8.50;6.77;;;;;;;;;;525509;28;1768;-60
2022/11/28 01:16:31;;;;;;;9.15;6.95;;;;;;;;;;524516;28;1136;-60
2022/11/28 01:16:47;;;;;;;10.70;7.30;;;;;;;;;;525825;28;1228;-60
2022/11/28 01:17:02;;;;;;;10.98;7.40;;;;;;;;;;525849;28;1307;-60
2022/11/28 01:17:18;;;;;;;9.77;7.20;;;;;;;;;;525610;27;2269;-60
2022/11/28 01:17:33;;;;;;;9.70;6.90;;;;;;;;;;525155;28;1310;-60
2022/11/28 01:17:48;;;;;;;9.43;6.80;;;;;;;;;;522117;28;1522;-60
2022/11/28 01:18:03;;;;;;;8.90;7.10;;;;;;;;;;524621;28;2188;-60
2022/11/28 01:18:19;;;;;;;10.03;7.20;;;;;;;;;;523402;28;1264;-60
2022/11/28 01:18:34;;;;;;;9.90;6.93;;;;;;;;;;524909;28;1212;-60
2022/11/28 01:18:50;;;;;;;8.85;6.88;;;;;;;;;;523719;28;1116;-60
2022/11/28 01:19:06;;;;;;;8.75;6.97;;;;;;;;;;523113;28;1179;-60
2022/11/28 01:19:21;;;;;;;8.80;7.10;;;;;;;;;;520399;28;1251;-60
2022/11/28 01:19:37;;;;;;;8.57;7.07;;;;;;;;;;520133;28;1906;-60
2022/11/28 01:19:52;;;;;;;9.53;7.10;;;;;;;;;;520300;28;1415;-60
2022/11/28 01:20:08;;;;;;;9.90;7.20;;;;;;;;;;520497;28;1706;-60
2022/11/28 01:20:23;;;;;;;9.00;6.93;;;;;;;;;;520622;28;1225;-60
2022/11/28 01:20:38;;;;;;;9.33;6.87;;;;;;;;;;521284;28;1097;-61
2022/11/28 01:20:53;;;;;;;8.87;7.10;;;;;;;;;;520290;28;1271;-60
2022/11/28 01:21:09;;;;;;;9.80;7.00;;;;;;;;;;520351;28;1414;-60
2022/11/28 01:21:25;;;;;;;10.25;6.97;;;;;;;;;;522900;28;1338;-60
2022/11/28 01:21:40;;;;;;;9.50;7.10;;;;;;;;;;522870;28;1142;-60
2022/11/28 01:21:56;;;;;;;9.00;7.00;;;;;;;;;;522342;28;1422;-60
2022/11/28 01:22:11;;;;;;;8.98;7.18;;;;;;;;;;519723;28;1368;-60
2022/11/28 01:22:26;;;;;;;9.53;7.47;;;;;;;;;;520409;28;1348;-60
2022/11/28 01:22:42;;;;;;;8.87;7.20;;;;;;;;;;518274;28;1476;-60
2022/11/28 01:22:57;;;;;;;8.30;6.90;;;;;;;;;;519217;28;1399;-60
2022/11/28 01:23:12;;;;;;;9.30;7.30;;;;;;;;;;519618;28;1227;-60
2022/11/28 01:23:27;;;;;;;9.27;7.07;;;;;;;;;;520690;28;1403;-60
2022/11/28 01:23:43;;;;;;;9.13;7.00;;;;;;;;;;520497;28;1261;-60
2022/11/28 01:23:58;;;;;;;9.93;7.43;;;;;;;;;;522300;28;1512;-61
2022/11/28 01:24:13;;;;;;;9.70;7.17;;;;;;;;;;523574;28;1393;-60
2022/11/28 01:24:29;;;;;;;10.30;6.93;;;;;;;;;;522591;28;1492;-60
2022/11/28 01:24:44;;;;;;;10.63;6.90;;;;;;;;;;525709;28;1366;-60
2022/11/28 01:24:59;;;;;;;9.43;6.87;;;;;;;;;;524859;28;1339;-60
2022/11/28 01:25:14;;;;;;;9.50;7.03;;;;;;;;;;525829;28;1232;-60
2022/11/28 01:25:30;;;;;;;9.98;7.18;;;;;;;;;;524297;28;1407;-61
2022/11/28 01:25:45;;;;;;;9.33;7.20;;;;;;;;;;523138;28;1409;-60
2022/11/28 01:26:02;;;;;;;10.00;7.10;;;;;;;;;;521705;28;1852;-60
2022/11/28 01:26:21;;;;;;;10.40;6.72;;;;;;;;;;522049;28;1416;-60
2022/11/28 01:26:39;;;;;;;11.35;7.05;;;;;;;;;;519024;28;1565;-60
2022/11/28 01:26:54;;;;;;;8.90;7.22;;;;;;;;;;519660;28;1241;-60
2022/11/28 01:27:09;;;;;;;8.53;6.97;;;;;;;;;;519376;28;1446;-60
2022/11/28 01:27:24;;;;;;;9.03;7.03;;;;;;;;;;520467;28;1650;-60
2022/11/28 01:27:40;;;;;;;9.93;7.10;;;;;;;;;;521859;28;1695;-60
2022/11/28 01:27:55;;;;;;;9.43;7.07;;;;;;;;;;522455;28;1227;-60
2022/11/28 01:28:10;;;;;;;8.47;7.07;;;;;;;;;;523956;28;1291;-60
2022/11/28 01:28:25;;;;;;;8.90;6.97;;;;;;;;;;523162;28;1476;-60
2022/11/28 01:28:41;;;;;;;9.00;7.00;;;;;;;;;;523166;28;1307;-60
2022/11/28 01:28:58;;;;;;;10.20;7.30;;;;;;;;;;524309;28;1144;-60
2022/11/28 01:29:15;;;;;;;10.32;7.25;;;;;;;;;;523488;28;1361;-60
2022/11/28 01:29:30;;;;;;;10.38;7.00;;;;;;;;;;524680;28;1283;-60
2022/11/28 01:29:45;;;;;;;10.53;7.13;;;;;;;;;;524848;28;1215;-60
2022/11/28 01:30:00;;;;;;;9.18;7.15;;;;;;;;;;523691;28;1452;-60
2022/11/28 01:30:16;;;;;;;10.33;7.37;;;;;;;;;;522337;28;1458;-61
2022/11/28 01:30:32;;;;;;;10.20;7.60;;;;;;;;;;525060;28;1385;-60
2022/11/28 01:30:47;;;;;;;9.15;7.22;;;;;;;;;;524322;28;1862;-60
2022/11/28 01:31:07;;;;;;;9.60;7.20;;;;;;;;;;523525;28;1485;-60
2022/11/28 01:31:25;;;;;;;8.77;7.15;;;;;;;;;;523763;28;1280;-60
2022/11/28 01:31:41;;;;;;;8.15;6.90;;;;;;;;;;523106;28;1408;-60
2022/11/28 01:31:56;;;;;;;8.17;6.83;;;;;;;;;;525237;28;1254;-60
2022/11/28 01:32:11;;;;;;;8.60;7.13;;;;;;;;;;525599;28;1339;-60
2022/11/28 01:32:27;;;;;;;9.03;7.20;;;;;;;;;;526124;28;1774;-60
2022/11/28 01:32:42;;;;;;;8.93;7.10;;;;;;;;;;525694;28;1168;-60
2022/11/28 01:32:57;;;;;;;9.43;7.35;;;;;;;;;;525119;28;1207;-60
2022/11/28 01:33:12;;;;;;;9.30;7.40;;;;;;;;;;525947;28;1354;-60
2022/11/28 01:33:28;;;;;;;8.70;7.27;;;;;;;;;;527020;28;1443;-60
2022/11/28 01:33:43;;;;;;;8.47;7.10;;;;;;;;;;522336;28;1525;-60
2022/11/28 01:33:58;;;;;;;8.65;6.95;;;;;;;;;;523688;28;1841;-60
2022/11/28 01:34:14;;;;;;;9.53;7.10;;;;;;;;;;525219;28;1103;-60
2022/11/28 01:34:29;;;;;;;9.35;7.00;;;;;;;;;;526145;28;1195;-60
2022/11/28 01:34:44;;;;;;;9.23;6.90;;;;;;;;;;523902;28;1538;-60
2022/11/28 01:35:00;;;;;;;9.43;7.30;;;;;;;;;;522545;28;1924;-61
2022/11/28 01:35:15;;;;;;;9.83;7.47;;;;;;;;;;522719;28;1268;-60
2022/11/28 01:35:30;;;;;;;9.25;7.05;;;;;;;;;;523602;28;1448;-60
2022/11/28 01:35:56;;;;;;;8.60;6.93;;;;;;;;;;526176;28;1954;-60
2022/11/28 01:36:13;;;;;;;9.52;7.05;;;;;;;;;;525265;28;1390;-60
2022/11/28 01:36:29;;;;;;;9.98;7.03;;;;;;;;;;524959;28;1181;-60
2022/11/28 01:36:44;;;;;;;9.60;7.17;;;;;;;;;;523826;27;1064;-60
2022/11/28 01:36:59;;;;;;;8.77;7.28;;;;;;;;;;523755;28;1235;-60
2022/11/28 01:37:14;;;;;;;9.53;7.60;;;;;;;;;;525575;28;1679;-60
2022/11/28 01:37:30;;;;;;;10.00;7.60;;;;;;;;;;526520;28;1365;-60
2022/11/28 01:37:45;;;;;;;9.98;7.38;;;;;;;;;;525699;27;1369;-60
2022/11/28 01:38:01;;;;;;;9.23;7.10;;;;;;;;;;521987;28;1621;-60